createdAt,value
2023-05-09T00:01:14.920Z,98761.00
2023-05-09T00:03:45.275Z,98754.84
2023-05-09T00:06:17.851Z,98756.97
2023-05-09T00:08:47.590Z,98761.47
2023-05-09T00:11:17.241Z,98757.97
2023-05-09T00:13:47.298Z,98751.94
2023-05-09T00:16:17.306Z,98754.06
2023-05-09T00:18:47.272Z,98754.06
2023-05-09T00:21:19.577Z,98758.53
2023-05-09T00:23:49.768Z,98755.47
2023-05-09T00:26:19.735Z,98759.09
2023-05-09T00:28:50.171Z,98758.56
2023-05-09T00:31:19.943Z,98753.53
2023-05-09T00:33:49.640Z,98750.03
2023-05-09T00:36:21.999Z,98750.16
2023-05-09T00:38:52.037Z,98745.13
2023-05-09T00:41:21.792Z,98743.31
2023-05-09T00:43:51.498Z,98746.22
2023-05-09T00:46:21.177Z,98740.91
2023-05-09T00:48:52.494Z,98737.56
2023-05-09T00:51:25.176Z,98739.41
2023-05-09T00:53:54.911Z,98738.56
2023-05-09T00:56:24.609Z,98733.66
2023-05-09T00:58:55.739Z,98736.31
2023-05-09T01:01:26.318Z,98724.84
2023-05-09T01:03:56.158Z,98725.84
2023-05-09T01:06:33.597Z,98724.16
2023-05-09T01:09:07.496Z,98720.00
2023-05-09T01:11:39.800Z,98718.16
2023-05-09T01:14:15.482Z,98716.50
2023-05-09T01:16:50.365Z,98707.69
2023-05-09T01:19:42.847Z,98704.31
2023-05-09T01:22:17.492Z,98699.16
2023-05-09T01:25:03.214Z,98701.94
2023-05-09T01:27:45.248Z,98707.41
2023-05-09T01:30:19.676Z,98701.53
2023-05-09T01:32:51.364Z,98705.19
2023-05-09T01:35:21.620Z,98694.69
2023-05-09T01:37:53.192Z,98690.38
2023-05-09T01:40:23.668Z,98677.25
2023-05-09T01:42:55.770Z,98675.69
2023-05-09T01:45:29.133Z,98668.00
2023-05-09T01:47:59.403Z,98669.97
2023-05-09T01:50:30.117Z,98680.03
2023-05-09T01:52:59.979Z,98676.69
2023-05-09T01:55:31.785Z,98673.34
2023-05-09T01:58:01.987Z,98674.34
2023-05-09T02:00:35.158Z,98670.97
2023-05-09T02:03:05.586Z,98669.28
2023-05-09T02:05:35.832Z,98669.44
2023-05-09T02:08:05.615Z,98673.38
2023-05-09T02:10:36.220Z,98669.31
2023-05-09T02:13:07.867Z,98670.28
2023-05-09T02:15:40.474Z,98675.31
2023-05-09T02:18:10.256Z,98668.03
2023-05-09T02:20:39.930Z,98672.66
2023-05-09T02:23:09.639Z,98671.00
2023-05-09T02:25:39.730Z,98669.31
2023-05-09T02:28:10.409Z,98670.16
2023-05-09T02:30:45.906Z,98659.84
2023-05-09T02:33:16.759Z,98665.16
2023-05-09T02:35:48.441Z,98659.94
2023-05-09T02:38:19.348Z,98663.44
2023-05-09T02:40:52.377Z,98662.50
2023-05-09T02:43:22.442Z,98655.38
2023-05-09T02:45:54.798Z,98654.66
2023-05-09T02:48:24.572Z,98652.81
2023-05-09T02:50:54.263Z,98643.19
2023-05-09T02:53:23.939Z,98639.56
2023-05-09T02:55:53.993Z,98626.28
2023-05-09T02:58:23.888Z,98620.84
2023-05-09T03:00:56.147Z,98610.09
2023-05-09T03:03:26.191Z,98610.94
2023-05-09T03:05:56.136Z,98607.28
2023-05-09T03:08:25.880Z,98604.63
2023-05-09T03:10:55.559Z,98607.28
2023-05-09T03:13:25.942Z,98596.66
2023-05-09T03:15:58.450Z,98589.53
2023-05-09T03:18:28.183Z,98599.19
2023-05-09T03:20:58.344Z,98590.53
2023-05-09T03:23:29.123Z,98583.41
2023-05-09T03:25:58.804Z,98590.66
2023-05-09T03:28:28.502Z,98579.91
2023-05-09T03:31:04.903Z,98581.56
2023-05-09T03:33:35.198Z,98575.28
2023-05-09T03:36:05.225Z,98575.28
2023-05-09T03:38:35.040Z,98578.78
2023-05-09T03:41:04.915Z,98575.13
2023-05-09T03:43:35.508Z,98576.28
2023-05-09T03:46:07.791Z,98575.97
2023-05-09T03:48:38.055Z,98568.31
2023-05-09T03:51:08.795Z,98563.00
2023-05-09T03:53:41.971Z,98558.38
2023-05-09T03:56:12.513Z,98562.16
2023-05-09T03:58:48.461Z,98557.38
2023-05-09T04:01:21.175Z,98557.69
2023-05-09T04:03:52.277Z,98538.97
2023-05-09T04:06:23.363Z,98538.81
2023-05-09T04:08:53.206Z,98537.84
2023-05-09T04:11:23.031Z,98528.06
2023-05-09T04:13:53.295Z,98528.91
2023-05-09T04:16:38.050Z,98519.94
2023-05-09T04:19:07.787Z,98515.63
2023-05-09T04:21:38.478Z,98519.94
2023-05-09T04:24:10.393Z,98514.50
2023-05-09T04:26:49.326Z,98515.19
2023-05-09T04:29:23.413Z,98520.22
2023-05-09T04:31:59.478Z,98521.03
2023-05-09T04:34:29.880Z,98506.78
2023-05-09T04:37:03.502Z,98509.44
2023-05-09T04:39:33.804Z,98497.84
2023-05-09T04:42:11.722Z,98496.16
2023-05-09T04:44:41.562Z,98491.00
2023-05-09T04:47:13.919Z,98485.53
2023-05-09T04:49:43.662Z,98483.88
2023-05-09T04:52:13.366Z,98489.03
2023-05-09T04:54:43.536Z,98484.72
2023-05-09T04:57:18.302Z,98481.91
2023-05-09T04:59:54.103Z,98471.28
2023-05-09T05:02:26.692Z,98475.59
2023-05-09T05:05:10.152Z,98478.94
2023-05-09T05:07:43.390Z,98471.13
2023-05-09T05:10:16.418Z,98473.50
2023-05-09T05:12:50.273Z,98465.66
2023-05-09T05:15:21.474Z,98467.34
2023-05-09T05:17:54.189Z,98453.94
2023-05-09T05:20:26.853Z,98448.47
2023-05-09T05:22:57.789Z,98446.50
2023-05-09T05:25:27.847Z,98448.84
2023-05-09T05:27:58.651Z,98449.72
2023-05-09T05:30:28.575Z,98448.41
2023-05-09T05:33:02.287Z,98439.31
2023-05-09T05:35:32.705Z,98432.72
2023-05-09T05:38:03.196Z,98428.09
2023-05-09T05:40:32.957Z,98424.44
2023-05-09T05:43:06.005Z,98415.47
2023-05-09T05:45:37.850Z,98408.06
2023-05-09T05:48:13.002Z,98399.63
2023-05-09T05:50:42.817Z,98400.47
2023-05-09T05:53:13.779Z,98392.88
2023-05-09T05:55:46.532Z,98404.66
2023-05-09T05:58:16.530Z,98388.56
2023-05-09T06:00:46.670Z,98384.75
2023-05-09T06:03:19.466Z,98380.66
2023-05-09T06:05:54.237Z,98375.19
2023-05-09T06:08:24.048Z,98364.88
2023-05-09T06:10:54.268Z,98357.59
2023-05-09T06:13:24.133Z,98348.03
2023-05-09T06:16:07.792Z,98337.94
2023-05-09T06:18:47.925Z,98327.38
2023-05-09T06:21:17.654Z,98317.13
2023-05-09T06:24:02.051Z,98312.19
2023-05-09T06:26:36.337Z,98305.53
2023-05-09T06:29:07.788Z,98297.63
2023-05-09T06:31:39.257Z,98293.19
2023-05-09T06:34:11.708Z,98286.75
2023-05-09T06:36:41.402Z,98279.25
2023-05-09T06:39:11.072Z,98269.66
2023-05-09T06:41:40.864Z,98271.84
2023-05-09T06:44:10.535Z,98267.22
2023-05-09T06:46:40.410Z,98246.44
2023-05-09T06:49:14.002Z,98245.63
2023-05-09T06:51:43.733Z,98241.50
2023-05-09T06:54:13.404Z,98234.72
2023-05-09T06:56:46.050Z,98229.22
2023-05-09T06:59:16.685Z,98220.56
2023-05-09T07:01:46.417Z,98210.28
2023-05-09T07:04:18.712Z,98205.81
2023-05-09T07:06:48.440Z,98199.03
2023-05-09T07:09:20.606Z,98197.56
2023-05-09T07:11:50.414Z,98188.38
2023-05-09T07:14:20.641Z,98192.88
2023-05-09T07:16:50.415Z,98186.91
2023-05-09T07:19:22.723Z,98195.38
2023-05-09T07:21:52.555Z,98187.22
2023-05-09T07:24:22.210Z,98188.41
2023-05-09T07:26:51.890Z,98189.56
2023-05-09T07:29:26.506Z,98185.06
2023-05-09T07:31:56.407Z,98183.72
2023-05-09T07:34:28.782Z,98177.41
2023-05-09T07:36:58.827Z,98180.06
2023-05-09T07:39:28.898Z,98180.41
2023-05-09T07:41:58.591Z,98170.09
2023-05-09T07:44:28.334Z,98177.09
2023-05-09T07:46:59.346Z,98167.75
2023-05-09T07:49:31.676Z,98162.75
2023-05-09T07:52:01.397Z,98152.69
2023-05-09T07:54:31.260Z,98144.69
2023-05-09T07:57:01.003Z,98147.03
2023-05-09T07:59:30.701Z,98139.16
2023-05-09T08:02:00.870Z,98121.97
2023-05-09T08:04:33.325Z,98124.81
2023-05-09T08:07:04.243Z,98121.78
2023-05-09T08:09:34.044Z,98134.09
2023-05-09T08:12:04.004Z,98128.56
2023-05-09T08:14:33.719Z,98136.56
2023-05-09T08:17:03.483Z,98119.16
2023-05-09T08:19:35.801Z,98108.53
2023-05-09T08:22:05.737Z,98105.22
2023-05-09T08:24:35.469Z,98103.25
2023-05-09T08:27:05.484Z,98107.38
2023-05-09T08:29:35.176Z,98109.31
2023-05-09T08:32:04.867Z,98115.41
2023-05-09T08:34:37.182Z,98120.63
2023-05-09T08:37:07.845Z,98116.09
2023-05-09T08:39:37.586Z,98115.22
2023-05-09T08:42:07.445Z,98117.44
2023-05-09T08:44:37.378Z,98120.75
2023-05-09T08:47:07.719Z,98140.34
2023-05-09T08:49:40.144Z,98151.94
2023-05-09T08:52:11.575Z,98153.38
2023-05-09T08:54:41.554Z,98165.59
2023-05-09T08:57:11.493Z,98189.94
2023-05-09T08:59:43.428Z,98173.69
2023-05-09T09:02:15.885Z,98167.72
2023-05-09T09:04:48.489Z,98183.41
2023-05-09T09:07:18.746Z,98183.59
2023-05-09T09:09:50.293Z,98191.44
2023-05-09T09:12:20.738Z,98190.00
2023-05-09T09:14:52.517Z,98203.03
2023-05-09T09:17:28.239Z,98199.91
2023-05-09T09:20:02.269Z,98199.47
2023-05-09T09:22:35.848Z,98208.19
2023-05-09T09:25:07.454Z,98230.53
2023-05-09T09:27:37.289Z,98225.25
2023-05-09T09:30:10.965Z,98231.44
2023-05-09T09:32:42.138Z,98234.09
2023-05-09T09:35:15.371Z,98230.03
2023-05-09T09:37:45.560Z,98215.19
2023-05-09T09:40:16.598Z,98216.31
2023-05-09T09:42:47.406Z,98218.31
2023-05-09T09:45:19.042Z,98223.78
2023-05-09T09:47:50.184Z,98247.97
2023-05-09T09:50:24.924Z,98264.75
2023-05-09T09:52:56.038Z,98274.34
2023-05-09T09:55:27.416Z,98291.16
2023-05-09T09:57:58.079Z,98303.22
2023-05-09T10:00:28.994Z,98321.31
2023-05-09T10:03:00.082Z,98341.59
2023-05-09T10:05:34.563Z,98350.75
2023-05-09T10:08:07.701Z,98360.19
2023-05-09T10:10:38.845Z,98338.84
2023-05-09T10:13:10.455Z,98322.50
2023-05-09T10:15:52.147Z,98337.47
2023-05-09T10:18:28.165Z,98365.84
2023-05-09T10:21:04.221Z,98361.63
2023-05-09T10:23:35.919Z,98363.75
2023-05-09T10:26:11.755Z,98340.31
2023-05-09T10:28:43.273Z,98340.31
2023-05-09T10:31:18.022Z,98345.13
2023-05-09T10:33:50.321Z,98357.69
2023-05-09T10:36:24.064Z,98340.22
2023-05-09T10:38:54.773Z,98324.47
2023-05-09T10:41:25.809Z,98326.22
2023-05-09T10:43:55.813Z,98325.41
2023-05-09T10:46:27.360Z,98359.72
2023-05-09T10:48:57.178Z,98362.03
2023-05-09T10:51:29.937Z,98352.19
2023-05-09T10:53:59.860Z,98349.03
2023-05-09T10:56:32.478Z,98387.00
2023-05-09T10:59:02.798Z,98396.31
2023-05-09T11:01:35.481Z,98377.66
2023-05-09T11:04:12.895Z,98370.16
2023-05-09T11:06:52.330Z,98368.28
2023-05-09T11:09:33.397Z,98375.00
2023-05-09T11:12:13.893Z,98392.34
2023-05-09T11:14:45.219Z,98411.09
2023-05-09T11:17:16.262Z,98397.63
2023-05-09T11:20:05.848Z,98416.31
2023-05-09T11:22:44.562Z,98420.38
2023-05-09T11:25:15.465Z,98418.91
2023-05-09T11:27:48.040Z,98445.88
2023-05-09T11:30:19.692Z,98452.72
2023-05-09T11:32:50.590Z,98453.34
2023-05-09T11:35:21.718Z,98446.72
2023-05-09T11:37:58.192Z,98419.66
2023-05-09T11:40:27.924Z,98397.75
2023-05-09T11:42:58.954Z,98396.19
2023-05-09T11:45:30.637Z,98417.63
2023-05-09T11:48:00.771Z,98404.75
2023-05-09T11:50:30.565Z,98390.19
2023-05-09T11:53:02.898Z,98397.66
2023-05-09T11:55:32.976Z,98423.41
2023-05-09T11:58:02.730Z,98376.66
2023-05-09T12:00:32.394Z,98372.69
2023-05-09T12:03:03.369Z,98336.06
2023-05-09T12:05:33.916Z,98334.53
2023-05-09T12:08:09.718Z,98353.09
2023-05-09T12:10:41.670Z,98339.59
2023-05-09T12:13:13.374Z,98323.72
2023-05-09T12:15:45.956Z,98307.72
2023-05-09T12:18:17.204Z,98258.63
2023-05-09T12:20:48.511Z,98251.56
2023-05-09T12:23:21.740Z,98238.91
2023-05-09T12:25:51.702Z,98239.25
2023-05-09T12:28:21.557Z,98273.78
2023-05-09T12:30:51.388Z,98252.03
2023-05-09T12:33:21.400Z,98278.31
2023-05-09T12:35:52.889Z,98289.25
2023-05-09T12:38:27.165Z,98332.97
2023-05-09T12:41:03.949Z,98374.84
2023-05-09T12:43:35.002Z,98398.88
2023-05-09T12:46:05.677Z,98414.88
2023-05-09T12:48:38.590Z,98498.19
2023-05-09T12:51:08.807Z,98545.44
2023-05-09T12:53:43.768Z,98570.25
2023-05-09T12:56:18.335Z,98577.91
2023-05-09T12:58:52.753Z,98582.75
2023-05-09T13:01:23.199Z,98606.22
2023-05-09T13:04:03.020Z,98584.03
2023-05-09T13:06:33.050Z,98533.78
2023-05-09T13:09:09.279Z,98540.16
2023-05-09T13:11:39.497Z,98517.13
2023-05-09T13:14:09.197Z,98525.66
2023-05-09T13:16:38.885Z,98536.03
2023-05-09T13:19:08.578Z,98542.50
2023-05-09T13:21:38.490Z,98525.94
2023-05-09T13:24:11.212Z,98521.28
2023-05-09T13:26:40.917Z,98513.44
2023-05-09T13:29:10.701Z,98497.00
2023-05-09T13:31:40.541Z,98472.13
2023-05-09T13:34:10.207Z,98432.91
2023-05-09T13:36:39.911Z,98454.44
2023-05-09T13:39:12.237Z,98439.28
2023-05-09T13:41:41.993Z,98433.09
2023-05-09T13:44:11.746Z,98423.69
2023-05-09T13:46:41.596Z,98414.19
2023-05-09T13:49:11.893Z,98402.56
2023-05-09T13:51:41.970Z,98359.75
2023-05-09T13:54:17.387Z,98321.47
2023-05-09T13:56:47.116Z,98305.19
2023-05-09T13:59:16.735Z,98314.63
2023-05-09T14:01:46.519Z,98328.78
2023-05-09T14:04:16.326Z,98325.19
2023-05-09T14:06:48.380Z,98291.84
2023-05-09T14:09:22.376Z,98183.28
2023-05-09T14:11:52.661Z,98132.97
2023-05-09T14:14:23.051Z,98095.72
2023-05-09T14:16:54.083Z,98072.16
2023-05-09T14:19:23.820Z,98069.97
2023-05-09T14:21:53.450Z,98073.25
2023-05-09T14:24:26.020Z,98097.81
2023-05-09T14:26:55.873Z,98152.53
2023-05-09T14:29:25.814Z,98207.44
2023-05-09T14:31:55.664Z,98257.94
2023-05-09T14:34:25.422Z,98316.06
2023-05-09T14:36:55.142Z,98354.16
2023-05-09T14:39:27.624Z,98367.06
2023-05-09T14:41:57.266Z,98375.75
2023-05-09T14:44:27.213Z,98389.78
2023-05-09T14:46:56.956Z,98394.66
2023-05-09T14:49:26.801Z,98394.50
2023-05-09T14:51:56.489Z,98396.56
2023-05-09T14:54:31.789Z,98389.44
2023-05-09T14:57:04.638Z,98407.06
2023-05-09T14:59:36.689Z,98402.41
2023-05-09T15:02:07.186Z,98399.44
2023-05-09T15:04:36.927Z,98398.81
2023-05-09T15:07:06.770Z,98388.28
2023-05-09T15:09:39.156Z,98374.78
2023-05-09T15:12:09.302Z,98373.66
2023-05-09T15:14:39.634Z,98372.34
2023-05-09T15:17:09.533Z,98347.84
2023-05-09T15:19:39.788Z,98345.72
2023-05-09T15:22:10.797Z,98342.97
2023-05-09T15:24:44.374Z,98326.38
2023-05-09T15:27:14.527Z,98305.56
2023-05-09T15:29:44.746Z,98302.56
2023-05-09T15:32:15.249Z,98275.88
2023-05-09T15:34:48.677Z,98267.03
2023-05-09T15:37:18.737Z,98209.34
2023-05-09T15:39:51.261Z,98178.38
2023-05-09T15:42:21.491Z,98167.94
2023-05-09T15:44:51.217Z,98161.13
2023-05-09T15:47:21.035Z,98165.63
2023-05-09T15:49:50.966Z,98130.53
2023-05-09T15:52:20.670Z,98118.38
2023-05-09T15:54:53.144Z,98110.72
2023-05-09T15:57:22.929Z,98109.06
2023-05-09T15:59:54.524Z,98098.19
2023-05-09T16:02:24.898Z,98095.03
2023-05-09T16:04:54.743Z,98086.66
2023-05-09T16:07:24.488Z,98063.19
2023-05-09T16:09:56.869Z,98057.03
2023-05-09T16:12:27.022Z,98057.03
2023-05-09T16:14:56.868Z,98055.53
2023-05-09T16:17:26.631Z,98056.72
2023-05-09T16:19:58.596Z,98054.88
2023-05-09T16:22:28.611Z,98059.56
2023-05-09T16:25:01.121Z,98052.75
2023-05-09T16:27:31.054Z,98052.38
2023-05-09T16:30:00.903Z,98046.59
2023-05-09T16:32:30.650Z,98043.75
2023-05-09T16:35:00.320Z,98041.25
2023-05-09T16:37:30.047Z,98041.06
2023-05-09T16:40:02.612Z,98032.25
2023-05-09T16:42:32.686Z,98028.91
2023-05-09T16:45:02.532Z,98023.75
2023-05-09T16:47:32.614Z,98018.41
2023-05-09T16:50:02.528Z,98009.94
2023-05-09T16:52:32.627Z,98013.63
2023-05-09T16:55:04.948Z,98011.59
2023-05-09T16:57:34.637Z,98000.44
2023-05-09T17:00:04.389Z,98004.59
2023-05-09T17:02:34.137Z,97986.47
2023-05-09T17:05:04.374Z,97983.97
2023-05-09T17:07:34.128Z,97973.50
2023-05-09T17:10:06.522Z,97979.00
2023-05-09T17:12:36.302Z,97967.66
2023-05-09T17:15:06.188Z,97954.34
2023-05-09T17:17:35.950Z,97944.84
2023-05-09T17:20:05.801Z,97941.53
2023-05-09T17:22:37.117Z,97937.38
2023-05-09T17:25:10.450Z,97918.91
2023-05-09T17:27:41.743Z,97921.72
2023-05-09T17:30:12.771Z,97914.72
2023-05-09T17:32:43.183Z,97918.47
2023-05-09T17:35:13.920Z,97903.81
2023-05-09T17:37:43.630Z,97896.81
2023-05-09T17:40:16.524Z,97880.00
2023-05-09T17:42:46.390Z,97876.50
2023-05-09T17:45:16.056Z,97872.56
2023-05-09T17:47:45.768Z,97865.91
2023-05-09T17:50:17.326Z,97860.25
2023-05-09T17:52:49.538Z,97868.50
2023-05-09T17:55:21.912Z,97859.44
2023-05-09T17:57:51.638Z,97857.19
2023-05-09T18:00:22.297Z,97854.94
2023-05-09T18:02:52.355Z,97857.13
2023-05-09T18:05:23.719Z,97860.31
2023-05-09T18:07:59.526Z,97863.63
2023-05-09T18:10:32.624Z,97850.81
2023-05-09T18:13:03.632Z,97846.31
2023-05-09T18:15:40.131Z,97833.38
2023-05-09T18:18:14.281Z,97824.75
2023-05-09T18:20:46.332Z,97812.28
2023-05-09T18:23:17.359Z,97784.84
2023-05-09T18:25:49.952Z,97775.19
2023-05-09T18:28:24.652Z,97752.75
2023-05-09T18:30:54.898Z,97728.81
2023-05-09T18:33:25.385Z,97708.72
2023-05-09T18:35:55.528Z,97689.09
2023-05-09T18:38:25.372Z,97673.44
2023-05-09T18:40:57.851Z,97644.22
2023-05-09T18:43:29.095Z,97633.47
2023-05-09T18:45:58.846Z,97618.72
2023-05-09T18:48:28.594Z,97618.13
2023-05-09T18:50:58.595Z,97615.84
2023-05-09T18:53:29.027Z,97618.03
2023-05-09T18:56:01.490Z,97613.22
2023-05-09T18:58:31.338Z,97615.41
2023-05-09T19:01:01.148Z,97610.44
2023-05-09T19:03:31.051Z,97605.47
2023-05-09T19:06:01.579Z,97601.34
2023-05-09T19:08:31.567Z,97611.81
2023-05-09T19:11:03.790Z,97618.81
2023-05-09T19:13:37.178Z,97627.28
2023-05-09T19:16:08.211Z,97612.66
2023-05-09T19:18:38.154Z,97617.50
2023-05-09T19:21:07.830Z,97626.31
2023-05-09T19:23:37.507Z,97619.97
2023-05-09T19:26:09.958Z,97612.50
2023-05-09T19:28:39.874Z,97607.06
2023-05-09T19:31:12.278Z,97607.88
2023-05-09T19:33:42.377Z,97607.53
2023-05-09T19:36:12.153Z,97601.38
2023-05-09T19:38:42.129Z,97605.69
2023-05-09T19:41:14.658Z,97599.38
2023-05-09T19:43:44.351Z,97595.91
2023-05-09T19:46:14.141Z,97597.56
2023-05-09T19:48:43.854Z,97583.44
2023-05-09T19:51:15.587Z,97578.97
2023-05-09T19:53:46.971Z,97585.28
2023-05-09T19:56:19.396Z,97585.44
2023-05-09T19:58:49.919Z,97581.13
2023-05-09T20:01:20.042Z,97583.16
2023-05-09T20:03:52.241Z,97589.28
2023-05-09T20:06:22.158Z,97580.63
2023-05-09T20:08:52.287Z,97586.78
2023-05-09T20:11:24.615Z,97579.81
2023-05-09T20:13:54.325Z,97578.50
2023-05-09T20:16:24.008Z,97574.84
2023-05-09T20:18:55.190Z,97568.72
2023-05-09T20:21:27.180Z,97569.91
2023-05-09T20:23:56.984Z,97561.41
2023-05-09T20:26:29.782Z,97557.94
2023-05-09T20:29:01.544Z,97562.78
2023-05-09T20:31:31.817Z,97552.97
2023-05-09T20:34:01.815Z,97551.66
2023-05-09T20:36:31.879Z,97547.16
2023-05-09T20:39:01.483Z,97549.34
2023-05-09T20:41:34.961Z,97546.88
2023-05-09T20:44:05.576Z,97542.88
2023-05-09T20:46:35.469Z,97540.91
2023-05-09T20:49:05.595Z,97553.38
2023-05-09T20:51:35.261Z,97552.56
2023-05-09T20:54:04.937Z,97534.81
2023-05-09T20:56:37.239Z,97541.31
2023-05-09T20:59:06.978Z,97546.28
2023-05-09T21:01:37.443Z,97539.34
2023-05-09T21:04:08.508Z,97528.69
2023-05-09T21:06:38.256Z,97527.53
2023-05-09T21:09:09.158Z,97516.44
2023-05-09T21:11:41.459Z,97504.81
2023-05-09T21:14:11.633Z,97488.25
2023-05-09T21:16:43.950Z,97485.09
2023-05-09T21:19:13.731Z,97480.13
2023-05-09T21:21:43.364Z,97470.72
2023-05-09T21:24:13.385Z,97448.97
2023-05-09T21:26:45.624Z,97443.38
2023-05-09T21:29:15.516Z,97431.25
2023-05-09T21:31:45.307Z,97414.53
2023-05-09T21:34:15.096Z,97404.28
2023-05-09T21:36:44.801Z,97392.16
2023-05-09T21:39:14.476Z,97392.03
2023-05-09T21:41:46.799Z,97383.38
2023-05-09T21:44:16.561Z,97381.72
2023-05-09T21:46:46.547Z,97370.66
2023-05-09T21:49:17.885Z,97364.00
2023-05-09T21:51:47.630Z,97366.19
2023-05-09T21:54:17.347Z,97360.22
2023-05-09T21:56:49.702Z,97352.28
2023-05-09T21:59:20.972Z,97343.66
2023-05-09T22:01:51.111Z,97345.81
2023-05-09T22:04:20.877Z,97343.50
2023-05-09T22:06:50.491Z,97345.16
2023-05-09T22:09:20.249Z,97356.91
2023-05-09T22:11:52.945Z,97355.25
2023-05-09T22:14:22.755Z,97363.38
2023-05-09T22:16:52.432Z,97371.31
2023-05-09T22:19:22.173Z,97382.25
2023-05-09T22:21:51.840Z,97377.59
2023-05-09T22:24:21.491Z,97379.25
2023-05-09T22:26:53.753Z,97412.84
2023-05-09T22:29:23.494Z,97433.22
2023-05-09T22:31:54.713Z,97435.69
2023-05-09T22:34:24.497Z,97451.91
2023-05-09T22:36:55.116Z,97474.25
2023-05-09T22:39:25.041Z,97497.41
2023-05-09T22:41:57.317Z,97511.31
2023-05-09T22:44:27.117Z,97552.84
2023-05-09T22:46:56.844Z,97599.19
2023-05-09T22:49:26.835Z,97638.09
2023-05-09T22:51:56.547Z,97680.91
2023-05-09T22:54:26.895Z,97726.91
2023-05-09T22:56:59.404Z,97763.31
2023-05-09T22:59:29.308Z,97815.28
2023-05-09T23:01:58.948Z,97846.41
2023-05-09T23:04:28.754Z,97879.81
2023-05-09T23:06:58.588Z,97920.53
2023-05-09T23:09:28.475Z,97952.97
2023-05-09T23:12:01.313Z,97981.56
2023-05-09T23:14:31.562Z,98006.94
2023-05-09T23:17:01.256Z,98027.44
2023-05-09T23:19:30.939Z,98047.47
2023-05-09T23:22:01.161Z,98058.34
2023-05-09T23:24:30.833Z,98089.19
2023-05-09T23:27:03.870Z,98111.03
2023-05-09T23:29:33.649Z,98119.13
2023-05-09T23:32:03.500Z,98123.72
2023-05-09T23:34:33.939Z,98128.63
2023-05-09T23:37:03.597Z,98131.13
2023-05-09T23:39:34.033Z,98134.91
2023-05-09T23:42:06.945Z,98144.53
2023-05-09T23:44:36.722Z,98155.09
2023-05-09T23:47:06.985Z,98167.38
2023-05-09T23:49:36.714Z,98173.50
2023-05-09T23:52:06.551Z,98198.56
2023-05-09T23:54:36.168Z,98208.63
2023-05-09T23:57:08.739Z,98225.75
2023-05-09T23:59:38.404Z,98241.53
